FDY4218 PHOG-PHMU
Flight info
| Callsign | FDY4218 |
|---|---|
| Flight time | 0h 29m |
| Altitude | 5000 |
| Route | ONOHI2 ONOHI BARBY V11 UPP |
| Aircraft | C208/L-SDFGR/C |
Departure
| Time | 2026-04-26 01:58 |
|---|---|
| Airport | Kahului International Airport (PHOG) |
Arrival
| Time | 2026-04-26 02:27 |
|---|---|
| Airport | Waimea Kohala Airport (PHMU) |
| Time | Latitude | Longitude | Altitude | Speed | Heading |
|---|---|---|---|---|---|
| 2026-04-26 01:51 | 20.89659 | -156.43555 | 44 ft | 0 kts | 65° |
| 2026-04-26 01:55 | 20.89675 | -156.43543 | 44 ft | 6 kts | 3° |
| 2026-04-26 01:56 | 20.89718 | -156.43557 | 44 ft | 9 kts | 338° |
| 2026-04-26 01:56 | 20.89711 | -156.43639 | 44 ft | 17 kts | 244° |
| 2026-04-26 01:56 | 20.89675 | -156.43744 | 44 ft | 11 kts | 282° |
| 2026-04-26 01:56 | 20.89688 | -156.43764 | 44 ft | 0 kts | 319° |
| 2026-04-26 01:57 | 20.89723 | -156.43786 | 44 ft | 12 kts | 338° |
| 2026-04-26 01:57 | 20.89802 | -156.43719 | 44 ft | 35 kts | 64° |
| 2026-04-26 01:58 | 20.89979 | -156.43290 | 108 ft | 80 kts | 58° |
| 2026-04-26 01:58 | 20.90215 | -156.42714 | 368 ft | 88 kts | 57° |
| 2026-04-26 01:58 | 20.90667 | -156.42285 | 595 ft | 95 kts | 25° |
| 2026-04-26 01:58 | 20.91253 | -156.41882 | 854 ft | 103 kts | 33° |
| 2026-04-26 01:59 | 20.91866 | -156.41455 | 1110 ft | 106 kts | 34° |
| 2026-04-26 01:59 | 20.92485 | -156.41002 | 1375 ft | 110 kts | 35° |
| 2026-04-26 01:59 | 20.93119 | -156.40580 | 1619 ft | 105 kts | 21° |
| 2026-04-26 01:59 | 20.93762 | -156.40273 | 1855 ft | 104 kts | 53° |
| 2026-04-26 02:00 | 20.93726 | -156.39520 | 2085 ft | 115 kts | 117° |
| 2026-04-26 02:00 | 20.93277 | -156.38817 | 2347 ft | 114 kts | 115° |
| 2026-04-26 02:00 | 20.92853 | -156.38095 | 2576 ft | 120 kts | 116° |
| 2026-04-26 02:00 | 20.92374 | -156.37310 | 2822 ft | 128 kts | 116° |
| 2026-04-26 02:01 | 20.91888 | -156.36506 | 3077 ft | 132 kts | 116° |
| 2026-04-26 02:01 | 20.91381 | -156.35662 | 3339 ft | 134 kts | 117° |
| 2026-04-26 02:01 | 20.90886 | -156.34812 | 3567 ft | 135 kts | 117° |
| 2026-04-26 02:01 | 20.90392 | -156.33955 | 3809 ft | 135 kts | 116° |
| 2026-04-26 02:02 | 20.89924 | -156.33097 | 4048 ft | 132 kts | 109° |
| 2026-04-26 02:02 | 20.89758 | -156.32138 | 4287 ft | 132 kts | 91° |
| 2026-04-26 02:02 | 20.89684 | -156.31163 | 4544 ft | 132 kts | 94° |
| 2026-04-26 02:02 | 20.89583 | -156.30179 | 4796 ft | 134 kts | 96° |
| 2026-04-26 02:03 | 20.89482 | -156.29189 | 4990 ft | 136 kts | 96° |
| 2026-04-26 02:03 | 20.89369 | -156.28155 | 4998 ft | 147 kts | 96° |
| 2026-04-26 02:03 | 20.89246 | -156.27030 | 5009 ft | 156 kts | 96° |
| 2026-04-26 02:03 | 20.89118 | -156.25859 | 5022 ft | 159 kts | 96° |
| 2026-04-26 02:04 | 20.88989 | -156.24664 | 5011 ft | 163 kts | 96° |
| 2026-04-26 02:04 | 20.88858 | -156.23457 | 5012 ft | 164 kts | 96° |
| 2026-04-26 02:04 | 20.88726 | -156.22240 | 5004 ft | 165 kts | 96° |
| 2026-04-26 02:04 | 20.88593 | -156.21015 | 5008 ft | 166 kts | 96° |
| 2026-04-26 02:05 | 20.88459 | -156.19788 | 5010 ft | 167 kts | 96° |
| 2026-04-26 02:05 | 20.88327 | -156.18550 | 5006 ft | 167 kts | 96° |
| 2026-04-26 02:05 | 20.88191 | -156.17314 | 5004 ft | 167 kts | 96° |
| 2026-04-26 02:05 | 20.88056 | -156.16081 | 4999 ft | 166 kts | 95° |
| 2026-04-26 02:06 | 20.87923 | -156.14853 | 4999 ft | 166 kts | 96° |
| 2026-04-26 02:06 | 20.87789 | -156.13630 | 4999 ft | 165 kts | 95° |
| 2026-04-26 02:06 | 20.87657 | -156.12405 | 4999 ft | 166 kts | 96° |
| 2026-04-26 02:06 | 20.87523 | -156.11179 | 4994 ft | 166 kts | 96° |
| 2026-04-26 02:07 | 20.87388 | -156.09949 | 4997 ft | 166 kts | 96° |
| 2026-04-26 02:07 | 20.87254 | -156.08718 | 4994 ft | 166 kts | 96° |
| 2026-04-26 02:07 | 20.87122 | -156.07503 | 4983 ft | 166 kts | 96° |
| 2026-04-26 02:07 | 20.86988 | -156.06281 | 4988 ft | 165 kts | 96° |
| 2026-04-26 02:08 | 20.86854 | -156.05059 | 4990 ft | 166 kts | 96° |
| 2026-04-26 02:08 | 20.86719 | -156.03834 | 4981 ft | 165 kts | 96° |
| 2026-04-26 02:08 | 20.86586 | -156.02617 | 4986 ft | 165 kts | 96° |
| 2026-04-26 02:08 | 20.86453 | -156.01394 | 4985 ft | 165 kts | 96° |
| 2026-04-26 02:09 | 20.86319 | -156.00169 | 4992 ft | 166 kts | 95° |
| 2026-04-26 02:09 | 20.86040 | -155.98981 | 4979 ft | 167 kts | 116° |
| 2026-04-26 02:09 | 20.85263 | -155.98046 | 4977 ft | 171 kts | 141° |
| 2026-04-26 02:09 | 20.84152 | -155.97577 | 4982 ft | 175 kts | 167° |
| 2026-04-26 02:10 | 20.82957 | -155.97347 | 4985 ft | 175 kts | 166° |
| 2026-04-26 02:10 | 20.81302 | -155.96991 | 4988 ft | 175 kts | 166° |
| 2026-04-26 02:10 | 20.78904 | -155.96492 | 4991 ft | 176 kts | 166° |
| 2026-04-26 02:10 | 20.76524 | -155.96003 | 4985 ft | 177 kts | 165° |
| 2026-04-26 02:11 | 20.74096 | -155.95500 | 4990 ft | 177 kts | 166° |
| 2026-04-26 02:11 | 20.71692 | -155.95002 | 4989 ft | 176 kts | 166° |
| 2026-04-26 02:11 | 20.69277 | -155.94500 | 4990 ft | 177 kts | 166° |
| 2026-04-26 02:11 | 20.66850 | -155.94001 | 4990 ft | 178 kts | 166° |
| 2026-04-26 02:12 | 20.64417 | -155.93493 | 4983 ft | 177 kts | 165° |
| 2026-04-26 02:12 | 20.62009 | -155.92994 | 4982 ft | 175 kts | 165° |
| 2026-04-26 02:12 | 20.59617 | -155.92497 | 4986 ft | 175 kts | 166° |
| 2026-04-26 02:12 | 20.57213 | -155.92003 | 4982 ft | 177 kts | 166° |
| 2026-04-26 02:13 | 20.54804 | -155.91502 | 4983 ft | 176 kts | 165° |
| 2026-04-26 02:13 | 20.53275 | -155.91008 | 4966 ft | 171 kts | 143° |
| 2026-04-26 02:13 | 20.51425 | -155.89433 | 4973 ft | 170 kts | 137° |
| 2026-04-26 02:13 | 20.49590 | -155.87856 | 4974 ft | 169 kts | 136° |
| 2026-04-26 02:14 | 20.47753 | -155.86286 | 4980 ft | 169 kts | 136° |
| 2026-04-26 02:14 | 20.45917 | -155.84715 | 4977 ft | 170 kts | 138° |
| 2026-04-26 02:14 | 20.44081 | -155.83147 | 4978 ft | 168 kts | 138° |
| 2026-04-26 02:14 | 20.42254 | -155.81601 | 4975 ft | 168 kts | 138° |
| 2026-04-26 02:15 | 20.40433 | -155.80043 | 4974 ft | 167 kts | 138° |
| 2026-04-26 02:15 | 20.38620 | -155.78497 | 4977 ft | 168 kts | 137° |
| 2026-04-26 02:15 | 20.36801 | -155.76946 | 4980 ft | 167 kts | 137° |
| 2026-04-26 02:15 | 20.34984 | -155.75392 | 4977 ft | 167 kts | 137° |
| 2026-04-26 02:16 | 20.33160 | -155.73826 | 4977 ft | 169 kts | 137° |
| 2026-04-26 02:16 | 20.31346 | -155.72248 | 4980 ft | 168 kts | 137° |
| 2026-04-26 02:16 | 20.29538 | -155.70666 | 4981 ft | 167 kts | 134° |
| 2026-04-26 02:16 | 20.28010 | -155.68815 | 4970 ft | 166 kts | 124° |
| 2026-04-26 02:17 | 20.26649 | -155.66877 | 4979 ft | 166 kts | 124° |
| 2026-04-26 02:17 | 20.25249 | -155.64896 | 4977 ft | 168 kts | 124° |
| 2026-04-26 02:17 | 20.23858 | -155.62905 | 4985 ft | 167 kts | 124° |
| 2026-04-26 02:17 | 20.22473 | -155.60904 | 4984 ft | 168 kts | 124° |
| 2026-04-26 02:18 | 20.21083 | -155.58899 | 4988 ft | 169 kts | 124° |
| 2026-04-26 02:18 | 20.19682 | -155.56879 | 4987 ft | 169 kts | 124° |
| 2026-04-26 02:18 | 20.18859 | -155.55597 | 4984 ft | 167 kts | 112° |
| 2026-04-26 02:18 | 20.18575 | -155.54406 | 4981 ft | 166 kts | 101° |
| 2026-04-26 02:19 | 20.18334 | -155.53197 | 4984 ft | 167 kts | 101° |
| 2026-04-26 02:19 | 20.18088 | -155.51985 | 4989 ft | 168 kts | 101° |
| 2026-04-26 02:19 | 20.17843 | -155.50769 | 4991 ft | 168 kts | 102° |
| 2026-04-26 02:19 | 20.17363 | -155.49665 | 4979 ft | 169 kts | 134° |
| 2026-04-26 02:20 | 20.16321 | -155.49077 | 4987 ft | 172 kts | 156° |
| 2026-04-26 02:20 | 20.15198 | -155.48687 | 4990 ft | 173 kts | 168° |
| 2026-04-26 02:20 | 20.13984 | -155.48641 | 4993 ft | 175 kts | 178° |
| 2026-04-26 02:20 | 20.12764 | -155.48645 | 4999 ft | 176 kts | 176° |
| 2026-04-26 02:21 | 20.11557 | -155.48608 | 4995 ft | 168 kts | 175° |
| 2026-04-26 02:21 | 20.10424 | -155.48572 | 4994 ft | 159 kts | 175° |
| 2026-04-26 02:21 | 20.09329 | -155.48545 | 5005 ft | 155 kts | 180° |
| 2026-04-26 02:21 | 20.08321 | -155.48917 | 5020 ft | 154 kts | 211° |
| 2026-04-26 02:22 | 20.07593 | -155.49743 | 5035 ft | 155 kts | 239° |
| 2026-04-26 02:22 | 20.07164 | -155.50791 | 5043 ft | 155 kts | 245° |
| 2026-04-26 02:22 | 20.06725 | -155.51837 | 5045 ft | 155 kts | 245° |
| 2026-04-26 02:22 | 20.06290 | -155.52889 | 5052 ft | 155 kts | 245° |
| 2026-04-26 02:23 | 20.05858 | -155.53939 | 5060 ft | 154 kts | 245° |
| 2026-04-26 02:23 | 20.05421 | -155.55004 | 4964 ft | 162 kts | 245° |
| 2026-04-26 02:23 | 20.04978 | -155.56095 | 4758 ft | 156 kts | 246° |
| 2026-04-26 02:23 | 20.04567 | -155.57101 | 4568 ft | 144 kts | 245° |
| 2026-04-26 02:24 | 20.04182 | -155.58026 | 4380 ft | 130 kts | 245° |
| 2026-04-26 02:24 | 20.03830 | -155.58874 | 4215 ft | 120 kts | 245° |
| 2026-04-26 02:24 | 20.03509 | -155.59645 | 4065 ft | 110 kts | 245° |
| 2026-04-26 02:24 | 20.03204 | -155.60386 | 3917 ft | 109 kts | 246° |
| 2026-04-26 02:25 | 20.02907 | -155.61104 | 3776 ft | 104 kts | 246° |
| 2026-04-26 02:25 | 20.02617 | -155.61792 | 3660 ft | 100 kts | 245° |
| 2026-04-26 02:25 | 20.02370 | -155.62458 | 3642 ft | 96 kts | 256° |
| 2026-04-26 02:25 | 20.02175 | -155.63129 | 3613 ft | 98 kts | 253° |
| 2026-04-26 02:26 | 20.01971 | -155.63838 | 3534 ft | 102 kts | 252° |
| 2026-04-26 02:26 | 20.01751 | -155.64529 | 3393 ft | 95 kts | 244° |
| 2026-04-26 02:26 | 20.01402 | -155.65104 | 3188 ft | 89 kts | 233° |
| 2026-04-26 02:26 | 20.01147 | -155.65444 | 3041 ft | 87 kts | 232° |
| 2026-04-26 02:27 | 20.00805 | -155.65903 | 2887 ft | 86 kts | 231° |
| 2026-04-26 02:27 | 20.00439 | -155.66399 | 2784 ft | 81 kts | 232° |
| 2026-04-26 02:27 | 20.00145 | -155.66799 | 2771 ft | 59 kts | 231° |
| 2026-04-26 02:27 | 19.99923 | -155.67098 | 2772 ft | 45 kts | 232° |
| 2026-04-26 02:28 | 19.99773 | -155.67302 | 2773 ft | 19 kts | 242° |
| 2026-04-26 02:28 | 19.99793 | -155.67343 | 2773 ft | 4 kts | 321° |
| 2026-04-26 02:28 | 19.99816 | -155.67360 | 2771 ft | 3 kts | 336° |
| 2026-04-26 02:28 | 19.99823 | -155.67363 | 2771 ft | 0 kts | 348° |
| 2026-04-26 02:29 | 19.99830 | -155.67357 | 2772 ft | 3 kts | 47° |
| 2026-04-26 02:29 | 19.99837 | -155.67352 | 2771 ft | 0 kts | 24° |